createdAt,value
2022-11-22T00:00:49.224Z,9.70
2022-11-22T00:03:18.055Z,8.47
2022-11-22T00:05:45.786Z,7.27
2022-11-22T00:08:13.577Z,8.87
2022-11-22T00:10:42.728Z,8.63
2022-11-22T00:13:10.568Z,7.83
2022-11-22T00:15:38.324Z,9.07
2022-11-22T00:18:06.096Z,7.33
2022-11-22T00:20:34.480Z,8.20
2022-11-22T00:23:02.208Z,7.87
2022-11-22T00:25:30.030Z,10.03
2022-11-22T00:27:59.118Z,8.07
2022-11-22T00:30:26.820Z,8.33
2022-11-22T00:32:54.579Z,8.60
2022-11-22T00:35:22.270Z,8.57
2022-11-22T00:37:49.977Z,7.60
2022-11-22T00:40:17.823Z,8.37
2022-11-22T00:42:45.533Z,9.13
2022-11-22T00:45:14.615Z,9.10
2022-11-22T00:47:42.344Z,8.30
2022-11-22T00:50:10.866Z,8.37
2022-11-22T00:52:38.611Z,9.63
2022-11-22T00:55:07.159Z,9.07
2022-11-22T00:57:34.922Z,9.90
2022-11-22T01:00:02.692Z,9.20
2022-11-22T01:02:31.845Z,8.73
2022-11-22T01:04:59.533Z,10.13
2022-11-22T01:07:27.370Z,9.83
2022-11-22T01:09:55.101Z,10.20
2022-11-22T01:12:22.979Z,10.30
2022-11-22T01:14:50.774Z,10.30
2022-11-22T01:17:18.695Z,8.47
2022-11-22T01:19:48.036Z,10.77
2022-11-22T01:22:15.757Z,9.60
2022-11-22T01:24:43.642Z,10.13
2022-11-22T01:27:11.387Z,8.80
2022-11-22T01:29:39.139Z,8.27
2022-11-22T01:32:07.002Z,8.93
2022-11-22T01:34:34.977Z,9.57
2022-11-22T01:37:04.069Z,9.17
2022-11-22T01:39:32.343Z,8.57
2022-11-22T01:42:00.242Z,8.73
2022-11-22T01:44:30.618Z,9.00
2022-11-22T01:47:00.628Z,7.17
2022-11-22T01:49:32.191Z,8.80
2022-11-22T01:52:06.045Z,7.03
2022-11-22T01:54:37.088Z,6.93
2022-11-22T01:57:09.219Z,8.27
2022-11-22T01:59:41.467Z,7.90
2022-11-22T02:02:09.427Z,8.03
2022-11-22T02:04:38.740Z,8.50
2022-11-22T02:07:12.156Z,8.27
2022-11-22T02:09:41.821Z,8.90
2022-11-22T02:12:11.000Z,7.67
2022-11-22T02:14:39.866Z,7.80
2022-11-22T02:17:07.625Z,8.33
2022-11-22T02:19:42.831Z,8.83
2022-11-22T02:22:24.784Z,10.13
2022-11-22T02:24:57.273Z,8.97
2022-11-22T02:27:27.485Z,9.40
2022-11-22T02:29:55.212Z,8.07
2022-11-22T02:32:23.037Z,6.83
2022-11-22T02:34:52.104Z,6.57
2022-11-22T02:37:24.025Z,8.50
2022-11-22T02:39:57.112Z,8.47
2022-11-22T02:42:27.212Z,8.80
2022-11-22T02:44:54.959Z,9.87
2022-11-22T02:47:22.714Z,9.43
2022-11-22T02:49:50.456Z,8.90
2022-11-22T02:52:18.840Z,8.93
2022-11-22T02:54:46.602Z,11.10
2022-11-22T02:57:14.493Z,8.40
2022-11-22T02:59:43.647Z,8.23
2022-11-22T03:02:11.389Z,10.53
2022-11-22T03:04:39.601Z,11.27
2022-11-22T03:07:07.687Z,10.80
2022-11-22T03:09:35.484Z,9.40
2022-11-22T03:12:03.283Z,8.87
2022-11-22T03:14:31.050Z,10.67
2022-11-22T03:17:00.110Z,9.50
2022-11-22T03:19:27.984Z,10.07
2022-11-22T03:21:55.820Z,9.37
2022-11-22T03:24:23.609Z,11.73
2022-11-22T03:26:51.592Z,10.37
2022-11-22T03:29:19.474Z,11.00
2022-11-22T03:31:47.373Z,11.67
2022-11-22T03:34:17.515Z,11.67
2022-11-22T03:36:45.274Z,12.27
2022-11-22T03:39:12.979Z,11.17
2022-11-22T03:41:40.736Z,10.97
2022-11-22T03:44:08.514Z,8.63
2022-11-22T03:46:36.656Z,10.97
2022-11-22T03:49:04.477Z,12.57
2022-11-22T03:51:33.618Z,11.40
2022-11-22T03:54:01.428Z,12.53
2022-11-22T03:56:30.890Z,12.63
2022-11-22T03:58:58.784Z,12.97
2022-11-22T04:01:26.636Z,13.10
2022-11-22T04:03:54.590Z,12.13
2022-11-22T04:06:22.440Z,13.27
2022-11-22T04:08:51.723Z,14.07
2022-11-22T04:11:19.477Z,12.90
2022-11-22T04:14:04.500Z,12.53
2022-11-22T04:16:32.260Z,13.40
2022-11-22T04:18:59.945Z,13.30
2022-11-22T04:21:35.724Z,12.17
2022-11-22T04:24:24.936Z,12.80
2022-11-22T04:26:53.440Z,13.27
2022-11-22T04:29:22.093Z,12.17
2022-11-22T04:32:08.127Z,11.57
2022-11-22T04:34:38.717Z,13.30
2022-11-22T04:37:06.913Z,16.97
2022-11-22T04:39:36.267Z,17.10
2022-11-22T04:42:21.640Z,13.03
2022-11-22T04:44:49.405Z,14.73
2022-11-22T04:47:33.175Z,13.83
2022-11-22T04:50:01.129Z,13.97
2022-11-22T04:52:46.615Z,13.80
2022-11-22T04:55:15.889Z,12.10
2022-11-22T04:57:43.633Z,13.37
2022-11-22T05:00:12.333Z,10.83
2022-11-22T05:02:40.070Z,13.50
2022-11-22T05:05:08.510Z,10.37
2022-11-22T05:07:36.302Z,11.77
2022-11-22T05:10:04.115Z,13.40
2022-11-22T05:12:33.343Z,14.57
2022-11-22T05:15:01.075Z,12.47
2022-11-22T05:17:28.895Z,12.27
2022-11-22T05:19:56.624Z,14.40
2022-11-22T05:22:45.065Z,12.33
2022-11-22T05:25:11.875Z,13.03
2022-11-22T05:27:40.958Z,11.80
2022-11-22T05:30:09.446Z,12.50
2022-11-22T05:32:37.252Z,12.50
2022-11-22T05:35:05.831Z,12.23
2022-11-22T05:37:33.542Z,11.67
2022-11-22T05:40:01.309Z,13.00
2022-11-22T05:42:29.051Z,12.73
2022-11-22T05:44:58.107Z,13.77
2022-11-22T05:47:25.881Z,14.77
2022-11-22T05:49:53.624Z,14.47
2022-11-22T05:52:21.414Z,14.10
2022-11-22T05:54:49.137Z,14.27
2022-11-22T05:57:16.857Z,15.00
2022-11-22T05:59:44.763Z,13.23
2022-11-22T06:02:13.898Z,13.03
2022-11-22T06:04:41.871Z,13.93
2022-11-22T06:07:10.500Z,14.27
2022-11-22T06:09:38.866Z,11.73
2022-11-22T06:12:07.145Z,14.07
2022-11-22T06:14:39.944Z,13.70
2022-11-22T06:17:10.695Z,13.77
2022-11-22T06:19:39.778Z,11.20
2022-11-22T06:22:07.505Z,12.73
2022-11-22T06:24:35.216Z,15.23
2022-11-22T06:27:03.036Z,13.43
2022-11-22T06:29:31.136Z,13.47
2022-11-22T06:32:03.499Z,12.93
2022-11-22T06:34:31.896Z,13.77
2022-11-22T06:37:00.986Z,15.20
2022-11-22T06:39:29.056Z,16.10
2022-11-22T06:41:57.066Z,14.63
2022-11-22T06:44:24.850Z,16.47
2022-11-22T06:46:52.565Z,17.13
2022-11-22T06:49:20.258Z,15.73
2022-11-22T06:51:48.019Z,15.33
2022-11-22T06:54:17.114Z,15.80
2022-11-22T06:56:44.807Z,14.90
2022-11-22T06:59:12.598Z,17.03
2022-11-22T07:01:40.445Z,15.80
2022-11-22T07:04:08.194Z,16.47
2022-11-22T07:06:38.585Z,15.23
2022-11-22T07:09:08.410Z,17.23
2022-11-22T07:11:38.314Z,16.13
2022-11-22T07:14:08.864Z,17.17
2022-11-22T07:16:38.122Z,15.70
2022-11-22T07:19:07.068Z,14.50
2022-11-22T07:21:37.155Z,15.90
2022-11-22T07:24:07.231Z,15.03
2022-11-22T07:26:35.050Z,15.80
2022-11-22T07:29:04.532Z,12.53
2022-11-22T07:31:32.360Z,14.27
2022-11-22T07:34:00.161Z,16.33
2022-11-22T07:36:29.524Z,12.37
2022-11-22T07:38:57.520Z,14.77
2022-11-22T07:41:25.418Z,14.67
2022-11-22T07:43:54.013Z,14.47
2022-11-22T07:46:26.132Z,14.80
2022-11-22T07:48:53.964Z,14.03
2022-11-22T07:51:21.685Z,16.43
2022-11-22T07:53:49.413Z,13.80
2022-11-22T07:56:17.924Z,14.20
2022-11-22T07:58:45.687Z,14.80
2022-11-22T08:01:16.590Z,14.70
2022-11-22T08:03:46.553Z,14.40
2022-11-22T08:06:15.418Z,11.70
2022-11-22T08:08:44.683Z,14.53
2022-11-22T08:11:12.772Z,13.27
2022-11-22T08:13:40.953Z,14.53
2022-11-22T08:16:11.279Z,13.47
2022-11-22T08:18:39.619Z,14.17
2022-11-22T08:21:10.983Z,13.53
2022-11-22T08:23:39.971Z,14.47
2022-11-22T08:26:09.383Z,13.70
2022-11-22T08:28:37.220Z,14.20
2022-11-22T08:31:07.199Z,13.93
2022-11-22T08:33:35.540Z,11.73
2022-11-22T08:36:03.671Z,14.17
2022-11-22T08:38:32.850Z,14.23
2022-11-22T08:41:00.548Z,14.00
2022-11-22T08:43:28.747Z,14.70
2022-11-22T08:45:58.504Z,13.20
2022-11-22T08:48:27.462Z,14.07
2022-11-22T08:50:56.883Z,34.53
2022-11-22T08:53:25.493Z,15.40
2022-11-22T08:55:56.018Z,12.27
2022-11-22T08:58:24.063Z,13.73
2022-11-22T09:00:51.826Z,12.73
2022-11-22T09:03:19.634Z,13.40
2022-11-22T09:08:40.450Z,12.43
2022-11-22T09:11:16.461Z,14.97
2022-11-22T09:13:44.567Z,13.63
2022-11-22T09:16:14.500Z,14.77
2022-11-22T09:18:42.759Z,12.63
2022-11-22T09:21:15.750Z,12.47
2022-11-22T09:23:44.560Z,13.47
2022-11-22T09:26:15.465Z,13.93
2022-11-22T09:28:43.773Z,14.00
2022-11-22T09:31:13.818Z,14.00
2022-11-22T09:33:45.056Z,13.97
2022-11-22T09:36:14.703Z,13.37
2022-11-22T09:38:42.526Z,13.80
2022-11-22T09:41:29.607Z,15.00
2022-11-22T09:44:06.468Z,14.63
2022-11-22T09:46:43.520Z,14.83
2022-11-22T09:49:28.016Z,14.20
2022-11-22T09:52:04.184Z,13.50
2022-11-22T09:54:39.932Z,14.63
2022-11-22T09:57:16.495Z,14.10
2022-11-22T09:59:48.462Z,14.40
2022-11-22T10:02:22.443Z,15.10
2022-11-22T10:04:56.409Z,13.30
2022-11-22T10:07:29.802Z,12.73
2022-11-22T10:10:04.107Z,10.80
2022-11-22T10:12:41.244Z,14.97
2022-11-22T10:15:17.155Z,14.20
2022-11-22T10:17:53.748Z,14.70
2022-11-22T10:20:23.070Z,15.20
2022-11-22T10:22:51.128Z,15.03
2022-11-22T10:25:20.729Z,11.30
2022-11-22T10:28:00.425Z,17.47
2022-11-22T10:30:35.180Z,11.93
2022-11-22T10:33:14.147Z,13.40
2022-11-22T10:36:01.808Z,13.77
2022-11-22T10:38:57.424Z,12.33
2022-11-22T10:41:39.675Z,14.07
2022-11-22T10:44:20.155Z,9.90
2022-11-22T10:46:57.161Z,13.43
2022-11-22T10:49:46.664Z,11.30
2022-11-22T10:52:23.165Z,12.50
2022-11-22T10:54:58.809Z,13.93
2022-11-22T10:57:33.991Z,12.60
2022-11-22T11:00:17.895Z,13.33
2022-11-22T11:03:04.010Z,12.97
2022-11-22T11:05:37.307Z,14.33
2022-11-22T11:08:36.882Z,12.60
2022-11-22T11:10:54.137Z,12.03
2022-11-22T11:13:26.144Z,12.07
2022-11-22T11:15:58.933Z,15.17
2022-11-22T11:18:31.977Z,13.30
2022-11-22T11:20:59.823Z,15.60
2022-11-22T11:23:27.561Z,17.77
2022-11-22T11:25:55.375Z,15.37
2022-11-22T11:28:27.264Z,13.87
2022-11-22T11:30:59.705Z,15.73
2022-11-22T11:33:29.764Z,15.70
2022-11-22T11:36:03.300Z,15.60
2022-11-22T11:38:34.681Z,15.40
2022-11-22T11:41:26.166Z,18.97
2022-11-22T11:43:55.227Z,15.07
2022-11-22T11:46:26.303Z,15.83
2022-11-22T11:48:55.538Z,16.93
2022-11-22T11:51:26.717Z,16.30
2022-11-22T11:53:59.889Z,13.87
2022-11-22T11:56:34.009Z,14.37
2022-11-22T11:59:07.941Z,18.27
2022-11-22T12:01:39.181Z,13.43
2022-11-22T12:04:16.024Z,15.73
2022-11-22T12:06:57.582Z,15.40
2022-11-22T12:09:36.897Z,17.57
2022-11-22T12:12:16.225Z,18.30
2022-11-22T12:15:10.228Z,17.67
2022-11-22T12:17:47.721Z,18.43
2022-11-22T12:20:21.201Z,16.17
2022-11-22T12:23:00.103Z,18.67
2022-11-22T12:25:34.192Z,16.23
2022-11-22T12:28:12.138Z,18.43
2022-11-22T12:30:42.318Z,19.13
2022-11-22T12:33:19.075Z,18.70
2022-11-22T12:35:47.290Z,17.20
2022-11-22T12:38:19.715Z,17.17
2022-11-22T12:40:50.846Z,18.30
2022-11-22T12:43:24.750Z,16.50
2022-11-22T12:45:56.145Z,16.37
2022-11-22T12:48:31.431Z,19.10
2022-11-22T12:51:04.634Z,23.57
2022-11-22T12:53:36.699Z,21.30
2022-11-22T12:56:12.366Z,14.20
2022-11-22T12:58:48.699Z,18.73
2022-11-22T13:01:21.742Z,16.47
2022-11-22T13:03:57.596Z,19.07
2022-11-22T13:06:29.253Z,16.07
2022-11-22T13:09:04.067Z,18.87
2022-11-22T13:11:35.852Z,17.77
2022-11-22T13:14:08.602Z,18.70
2022-11-22T13:16:36.477Z,19.80
2022-11-22T13:19:07.359Z,18.93
2022-11-22T13:21:47.747Z,17.43
2022-11-22T13:24:27.060Z,16.80
2022-11-22T13:27:07.987Z,16.77
2022-11-22T13:29:37.246Z,18.20
2022-11-22T13:32:08.932Z,18.93
2022-11-22T13:34:41.215Z,18.20
2022-11-22T13:37:13.201Z,19.77
2022-11-22T13:39:47.094Z,20.27
2022-11-22T13:42:19.596Z,20.33
2022-11-22T13:45:07.208Z,16.77
2022-11-22T13:47:43.425Z,19.73
2022-11-22T13:50:54.522Z,18.87
2022-11-22T13:53:27.067Z,17.57
2022-11-22T13:55:54.825Z,19.77
2022-11-22T13:58:51.934Z,20.10
2022-11-22T14:01:56.964Z,19.63
2022-11-22T14:04:44.376Z,17.63
2022-11-22T14:07:34.166Z,19.40
2022-11-22T14:10:05.317Z,18.97
2022-11-22T14:13:04.771Z,18.27
2022-11-22T14:15:52.260Z,18.20
2022-11-22T14:18:49.485Z,18.17
2022-11-22T14:21:40.133Z,19.53
2022-11-22T14:24:18.198Z,19.63
2022-11-22T14:26:55.898Z,17.23
2022-11-22T14:30:02.380Z,14.73
2022-11-22T14:32:51.872Z,18.60
2022-11-22T14:35:29.585Z,18.03
2022-11-22T14:38:40.258Z,18.50
2022-11-22T14:41:53.955Z,18.63
2022-11-22T14:44:33.014Z,17.53
2022-11-22T14:47:06.555Z,17.30
2022-11-22T14:49:43.189Z,15.50
2022-11-22T14:52:21.156Z,17.83
2022-11-22T14:54:51.314Z,15.30
2022-11-22T14:57:23.667Z,15.07
2022-11-22T15:00:08.652Z,14.73
2022-11-22T15:03:13.649Z,18.60
2022-11-22T15:09:14.562Z,18.17
2022-11-22T15:09:25.591Z,14.17
2022-11-22T15:11:59.673Z,17.60
2022-11-22T15:58:06.058Z,18.73
2022-11-22T16:00:33.928Z,16.33
2022-11-22T16:03:04.250Z,20.27
2022-11-22T16:06:05.725Z,17.80
2022-11-22T16:08:27.863Z,18.77
2022-11-22T16:11:00.227Z,17.00
2022-11-22T16:13:29.773Z,15.83
2022-11-22T16:16:17.565Z,17.30
2022-11-22T16:18:46.264Z,18.20
2022-11-22T16:21:27.735Z,17.07
2022-11-22T16:24:18.626Z,18.73
2022-11-22T16:26:56.078Z,15.43
2022-11-22T16:29:29.041Z,20.40
2022-11-22T16:32:01.605Z,17.50
2022-11-22T16:34:29.385Z,19.20
2022-11-22T16:36:57.200Z,19.27
2022-11-22T16:39:26.322Z,19.43
2022-11-22T16:41:55.184Z,17.27
2022-11-22T16:44:25.438Z,18.60
2022-11-22T16:46:56.305Z,19.47
2022-11-22T16:49:24.067Z,18.43
2022-11-22T16:51:52.704Z,18.37
2022-11-22T16:54:23.996Z,17.60
2022-11-22T16:56:53.253Z,20.17
2022-11-22T16:59:21.225Z,15.93
2022-11-22T17:01:49.687Z,17.50
2022-11-22T17:04:22.946Z,18.63
2022-11-22T17:06:51.146Z,19.00
2022-11-22T17:09:19.012Z,18.47
2022-11-22T17:11:47.349Z,20.47
2022-11-22T17:14:17.899Z,18.43
2022-11-22T17:16:46.784Z,18.50
2022-11-22T17:19:30.267Z,20.57
2022-11-22T17:22:02.358Z,14.53
2022-11-22T17:24:30.301Z,16.63
2022-11-22T17:26:58.274Z,19.17
2022-11-22T17:32:15.185Z,18.10
2022-11-22T17:34:42.905Z,18.17
2022-11-22T17:37:13.077Z,20.27
2022-11-22T17:39:41.371Z,15.70
2022-11-22T17:42:09.243Z,14.47
2022-11-22T17:44:38.315Z,19.80
2022-11-22T17:47:06.221Z,17.90
2022-11-22T17:49:34.263Z,18.60
2022-11-22T17:52:02.311Z,16.33
2022-11-22T17:54:30.111Z,20.03
2022-11-22T17:56:57.916Z,18.90
2022-11-22T17:59:25.956Z,20.40
2022-11-22T18:01:55.122Z,19.03
2022-11-22T18:04:23.082Z,19.23
2022-11-22T18:06:50.853Z,17.23
2022-11-22T18:09:18.554Z,16.67
2022-11-22T18:11:46.341Z,17.17
2022-11-22T18:14:14.260Z,18.20
2022-11-22T18:16:46.205Z,16.83
2022-11-22T18:19:15.870Z,18.90
2022-11-22T18:21:43.692Z,17.97
2022-11-22T18:24:11.597Z,17.73
2022-11-22T18:26:40.574Z,13.40
2022-11-22T18:29:39.035Z,16.37
2022-11-22T18:31:57.917Z,15.90
2022-11-22T18:34:32.003Z,15.20
2022-11-22T18:37:03.562Z,17.77
2022-11-22T18:39:34.540Z,19.17
2022-11-22T18:42:46.648Z,16.73
2022-11-22T18:45:14.393Z,18.30
2022-11-22T18:47:42.176Z,16.10
2022-11-22T18:50:12.906Z,18.13
2022-11-22T18:52:40.979Z,17.67
2022-11-22T18:55:15.713Z,15.60
2022-11-22T18:57:43.588Z,19.23
2022-11-22T19:00:12.968Z,18.07
2022-11-22T19:02:40.684Z,17.73
2022-11-22T19:05:08.751Z,18.60
2022-11-22T19:07:42.202Z,17.07
2022-11-22T19:10:11.041Z,15.27
2022-11-22T19:12:38.756Z,17.80
2022-11-22T19:15:07.453Z,19.00
2022-11-22T19:17:35.323Z,20.30
2022-11-22T19:20:03.192Z,18.83
2022-11-22T19:22:30.894Z,17.30
2022-11-22T19:24:59.984Z,17.57
2022-11-22T19:27:27.836Z,19.37
2022-11-22T19:29:55.598Z,19.43
2022-11-22T19:32:23.386Z,14.63
2022-11-22T19:34:52.048Z,17.20
2022-11-22T19:37:19.979Z,18.27
2022-11-22T19:39:48.781Z,17.13
2022-11-22T19:42:18.031Z,21.43
2022-11-22T19:44:47.857Z,20.47
2022-11-22T19:47:17.029Z,21.30
2022-11-22T19:49:44.774Z,15.53
2022-11-22T19:52:17.292Z,17.80
2022-11-22T19:54:45.599Z,20.40
2022-11-22T19:57:13.331Z,20.00
2022-11-22T19:59:42.483Z,21.53
2022-11-22T20:02:10.815Z,20.70
2022-11-22T20:04:38.566Z,23.27
2022-11-22T20:07:06.367Z,23.50
2022-11-22T20:09:34.189Z,21.77
2022-11-22T20:12:01.984Z,17.77
2022-11-22T20:14:30.001Z,22.67
2022-11-22T20:16:59.394Z,21.10
2022-11-22T20:19:37.375Z,22.53
2022-11-22T20:22:05.127Z,20.73
2022-11-22T20:24:33.441Z,18.50
2022-11-22T20:27:02.514Z,21.10
2022-11-22T20:29:30.249Z,23.03
2022-11-22T20:32:01.646Z,19.30
2022-11-22T20:34:30.282Z,22.70
2022-11-22T20:36:58.231Z,19.93
2022-11-22T20:39:26.015Z,21.37
2022-11-22T20:42:11.843Z,18.47
2022-11-22T20:44:41.482Z,22.93
2022-11-22T20:47:10.612Z,20.20
2022-11-22T20:49:43.929Z,19.37
2022-11-22T20:52:13.264Z,22.60
2022-11-22T20:54:41.025Z,21.83
2022-11-22T20:57:11.319Z,18.50
2022-11-22T20:59:41.208Z,19.37
2022-11-22T21:02:11.368Z,20.27
2022-11-22T21:04:39.096Z,22.70
2022-11-22T21:07:06.976Z,21.00
2022-11-22T21:09:34.752Z,23.20
2022-11-22T21:12:02.531Z,22.93
2022-11-22T21:14:30.475Z,21.43
2022-11-22T21:17:11.056Z,21.53
2022-11-22T21:19:47.580Z,21.63
2022-11-22T21:22:15.375Z,23.83
2022-11-22T21:24:43.122Z,20.27
2022-11-22T21:27:10.923Z,24.03
2022-11-22T21:29:38.660Z,19.17
2022-11-22T21:32:06.903Z,18.80
2022-11-22T21:34:34.635Z,20.00
2022-11-22T21:37:03.754Z,20.83
2022-11-22T21:39:33.975Z,20.70
2022-11-22T21:42:01.762Z,23.47
2022-11-22T21:44:29.772Z,22.13
2022-11-22T21:46:57.617Z,23.27
2022-11-22T21:49:25.318Z,16.90
2022-11-22T21:51:53.168Z,20.10
2022-11-22T21:54:22.639Z,21.60
2022-11-22T21:56:50.348Z,17.50
2022-11-22T21:59:18.053Z,21.03
2022-11-22T22:01:45.791Z,20.70
2022-11-22T22:04:13.790Z,20.03
2022-11-22T22:06:45.947Z,21.87
2022-11-22T22:09:14.010Z,23.77
2022-11-22T22:11:45.575Z,21.47
2022-11-22T22:14:13.287Z,22.27
2022-11-22T22:16:41.065Z,22.30
2022-11-22T22:19:09.636Z,18.57
2022-11-22T22:21:37.468Z,23.20
2022-11-22T22:24:05.672Z,23.17
2022-11-22T22:26:33.437Z,23.73
2022-11-22T22:29:02.518Z,23.17
2022-11-22T22:31:30.249Z,21.30
2022-11-22T22:33:58.680Z,21.47
2022-11-22T22:36:28.132Z,22.37
2022-11-22T22:38:56.152Z,22.87
2022-11-22T22:41:23.902Z,23.33
2022-11-22T22:43:52.163Z,22.57
2022-11-22T22:46:23.196Z,22.90
2022-11-22T22:48:51.893Z,21.13
2022-11-22T22:51:20.925Z,17.60
2022-11-22T22:53:49.113Z,22.33
2022-11-22T22:56:20.075Z,18.33
2022-11-22T22:58:47.991Z,21.63
2022-11-22T23:01:17.774Z,23.53
2022-11-22T23:03:50.169Z,20.50
2022-11-22T23:06:18.995Z,22.97
2022-11-22T23:08:48.492Z,21.90
2022-11-22T23:11:18.197Z,17.87
2022-11-22T23:13:45.990Z,20.20
2022-11-22T23:16:15.332Z,18.83
2022-11-22T23:18:45.171Z,18.63
2022-11-22T23:21:15.829Z,20.90
2022-11-22T23:23:43.752Z,20.37
2022-11-22T23:26:13.489Z,18.27
2022-11-22T23:28:41.305Z,22.73
2022-11-22T23:31:12.105Z,21.33
2022-11-22T23:33:39.852Z,18.00
2022-11-22T23:36:10.495Z,20.00
2022-11-22T23:38:40.154Z,20.83
2022-11-22T23:41:08.062Z,20.00
2022-11-22T23:43:35.789Z,18.87
2022-11-22T23:46:03.740Z,21.97
2022-11-22T23:48:31.581Z,19.30
2022-11-22T23:51:03.543Z,18.50
2022-11-22T23:53:31.312Z,17.20
2022-11-22T23:56:06.617Z,19.40
2022-11-22T23:58:34.419Z,17.40
